Time;durP1;ratioP1;P1;durP2;ratioP2;P2;SDS_P1;SDS_P2;PMS_P1;PMS_P2;Temp;Humidity;BMP_temperature;BMP_pressure;BME280_temperature;BME280_humidity;BME280_pressure;Samples;Min_cycle;Max_cycle;Signal;HPM_P1;HPM_P2
2022/08/31 00:06:04;;;;;;;10.18;4.22;;;21.20;99.90;;;;;;4994163;28;20049;-82
2022/08/31 00:08:31;;;;;;;6.72;4.47;;;21.10;99.90;;;;;;5009792;28;20432;-82
2022/08/31 00:10:57;;;;;;;6.68;4.30;;;21.10;99.90;;;;;;5009236;28;20435;-82
2022/08/31 00:13:25;;;;;;;6.43;4.03;;;21.00;99.90;;;;;;5009810;28;20030;-83
2022/08/31 00:15:53;;;;;;;8.13;4.22;;;21.00;99.90;;;;;;5008862;28;20385;-83
2022/08/31 00:18:19;;;;;;;7.97;4.57;;;21.00;99.90;;;;;;4993639;28;20101;-83
2022/08/31 00:20:46;;;;;;;6.13;3.95;;;21.00;99.90;;;;;;4994131;28;20050;-83
2022/08/31 00:23:14;;;;;;;5.18;4.00;;;20.90;99.90;;;;;;4998257;28;20172;-83
2022/08/31 00:25:44;;;;;;;6.95;4.22;;;20.80;99.90;;;;;;4997172;28;20118;-81
2022/08/31 00:28:10;;;;;;;5.68;3.55;;;20.80;99.90;;;;;;5013612;28;20030;-81
2022/08/31 00:30:36;;;;;;;5.10;3.58;;;20.60;99.90;;;;;;4998399;28;20030;-81
2022/08/31 00:33:03;;;;;;;5.03;3.60;;;20.60;99.90;;;;;;4996733;28;20181;-81
2022/08/31 00:35:31;;;;;;;4.63;3.13;;;20.60;99.90;;;;;;5013340;28;20034;-81
2022/08/31 00:37:57;;;;;;;4.93;3.13;;;20.50;99.90;;;;;;4997195;28;20026;-81
2022/08/31 00:40:23;;;;;;;7.85;3.45;;;20.50;99.90;;;;;;5013473;28;20027;-80
2022/08/31 00:42:49;;;;;;;3.95;3.17;;;20.60;99.90;;;;;;4997622;28;20018;-82
2022/08/31 00:45:15;;;;;;;4.72;2.95;;;20.50;99.90;;;;;;4997967;28;20029;-79
2022/08/31 00:47:40;;;;;;;4.85;2.67;;;20.50;99.90;;;;;;5012761;28;20034;-80
2022/08/31 00:50:09;;;;;;;6.22;2.95;;;20.40;99.90;;;;;;4995880;28;20085;-84
2022/08/31 00:52:39;;;;;;;6.63;3.30;;;20.40;99.90;;;;;;4998031;28;20455;-83
2022/08/31 00:55:14;;;;;;;4.40;3.00;;;20.40;99.90;;;;;;4997236;28;20551;-83
2022/08/31 00:57:43;;;;;;;5.82;3.47;;;20.40;99.90;;;;;;5013132;28;20122;-83
2022/08/31 01:00:13;;;;;;;4.82;3.13;;;20.30;99.90;;;;;;4997325;28;20034;-83
2022/08/31 01:02:40;;;;;;;6.68;3.58;;;20.30;99.90;;;;;;5013414;28;20033;-83
2022/08/31 01:05:07;;;;;;;4.63;3.25;;;20.30;99.90;;;;;;4997306;28;20070;-80
2022/08/31 01:07:33;;;;;;;7.00;3.83;;;20.30;99.90;;;;;;4997567;28;20023;-79
2022/08/31 01:09:59;;;;;;;7.40;3.50;;;20.30;99.90;;;;;;4996762;28;20033;-80
2022/08/31 01:12:26;;;;;;;4.40;3.35;;;20.30;99.90;;;;;;4996359;28;20033;-80
2022/08/31 01:14:52;;;;;;;6.28;3.60;;;20.20;99.90;;;;;;4995297;28;20412;-81
2022/08/31 01:17:20;;;;;;;4.97;3.40;;;20.30;99.90;;;;;;5012954;28;20057;-80
2022/08/31 01:19:55;;;;;;;4.65;3.45;;;20.30;99.90;;;;;;5011900;28;20499;-82
2022/08/31 01:22:40;;;;;;;5.57;3.50;;;20.20;99.90;;;;;;5012240;28;20031;-80
2022/08/31 01:25:06;;;;;;;4.60;3.45;;;20.30;99.90;;;;;;5011928;28;20022;-80
2022/08/31 01:27:34;;;;;;;5.13;3.53;;;20.30;99.90;;;;;;4997053;28;20372;-79
2022/08/31 01:30:02;;;;;;;5.22;3.63;;;20.40;99.90;;;;;;4996431;28;20459;-80
2022/08/31 01:32:28;;;;;;;4.70;3.10;;;20.30;99.90;;;;;;4996689;28;20038;-80
2022/08/31 01:34:54;;;;;;;6.15;4.00;;;20.30;99.90;;;;;;4995232;28;20026;-80
2022/08/31 01:37:19;;;;;;;6.43;3.67;;;20.30;99.90;;;;;;5012455;28;20033;-80
2022/08/31 01:39:45;;;;;;;5.05;3.40;;;20.30;99.90;;;;;;4996761;28;20042;-80
2022/08/31 01:42:11;;;;;;;5.55;3.53;;;20.40;99.90;;;;;;5011879;28;20054;-79
2022/08/31 01:44:36;;;;;;;7.25;3.53;;;20.40;99.90;;;;;;4995932;28;20384;-82
2022/08/31 01:47:02;;;;;;;4.85;3.63;;;20.40;99.90;;;;;;4996538;28;20046;-82
2022/08/31 01:49:28;;;;;;;6.63;3.25;;;20.30;99.90;;;;;;4997004;28;20026;-82
2022/08/31 01:51:54;;;;;;;5.00;3.92;;;20.40;99.90;;;;;;5011797;28;20084;-82
2022/08/31 01:54:22;;;;;;;4.35;3.38;;;20.40;99.90;;;;;;5011977;28;20379;-82
2022/08/31 01:56:49;;;;;;;6.82;4.00;;;20.40;99.90;;;;;;5011868;28;20550;-81
2022/08/31 01:59:17;;;;;;;4.95;3.33;;;20.30;99.90;;;;;;4995615;28;20037;-82
2022/08/31 02:01:46;;;;;;;5.13;3.15;;;20.30;99.90;;;;;;5012004;28;20034;-82
2022/08/31 02:04:13;;;;;;;4.90;3.38;;;20.40;99.90;;;;;;4996674;28;20031;-82
2022/08/31 02:06:46;;;;;;;3.90;2.88;;;20.40;99.90;;;;;;5012099;28;20098;-82
2022/08/31 02:09:13;;;;;;;5.55;3.25;;;20.30;99.90;;;;;;4996414;28;20030;-82
2022/08/31 02:11:38;;;;;;;5.20;3.00;;;20.30;99.90;;;;;;5012047;28;20470;-82
2022/08/31 02:14:05;;;;;;;4.53;2.90;;;20.30;99.90;;;;;;5011428;28;20117;-82
2022/08/31 02:16:30;;;;;;;4.20;3.15;;;20.30;99.90;;;;;;4996179;28;20089;-82
2022/08/31 02:18:56;;;;;;;4.28;3.35;;;20.30;99.90;;;;;;5011397;28;20034;-81
2022/08/31 02:21:22;;;;;;;6.10;3.15;;;20.40;99.90;;;;;;4995455;28;20033;-81
2022/08/31 02:23:48;;;;;;;5.50;3.50;;;20.50;99.90;;;;;;5011573;28;20030;-81
2022/08/31 02:26:13;;;;;;;3.47;2.75;;;20.50;99.90;;;;;;4995297;28;20053;-83
2022/08/31 02:28:40;;;;;;;5.00;3.13;;;20.50;99.90;;;;;;4996666;28;20427;-82
2022/08/31 02:31:05;;;;;;;5.38;3.30;;;20.50;99.90;;;;;;4995512;28;20034;-82
2022/08/31 02:33:31;;;;;;;3.38;2.85;;;20.60;99.90;;;;;;4996010;28;20379;-82
2022/08/31 02:35:57;;;;;;;5.50;3.35;;;20.60;99.90;;;;;;4995666;28;20472;-82
2022/08/31 02:38:23;;;;;;;3.95;2.95;;;20.60;99.90;;;;;;4995275;28;20471;-82
2022/08/31 02:40:50;;;;;;;4.15;2.83;;;20.60;99.90;;;;;;4995714;28;20364;-82
2022/08/31 02:43:16;;;;;;;4.18;3.17;;;20.60;99.90;;;;;;4995967;28;20058;-82
2022/08/31 02:45:42;;;;;;;4.35;3.00;;;20.60;99.90;;;;;;5010170;28;20030;-82
2022/08/31 02:48:09;;;;;;;4.35;2.75;;;20.60;99.90;;;;;;5010559;28;20652;-83
2022/08/31 02:50:44;;;;;;;5.80;3.33;;;20.60;99.90;;;;;;5011352;28;20117;-82
2022/08/31 02:53:11;;;;;;;4.53;3.42;;;20.60;99.90;;;;;;5010657;28;20084;-81
2022/08/31 02:55:36;;;;;;;5.25;3.72;;;20.60;99.90;;;;;;4995350;28;20030;-81
2022/08/31 02:58:03;;;;;;;4.80;3.72;;;20.70;99.90;;;;;;4995023;28;20030;-80
2022/08/31 03:00:30;;;;;;;4.18;3.35;;;20.60;99.90;;;;;;4995594;28;20031;-80
2022/08/31 03:02:55;;;;;;;5.10;3.28;;;20.60;99.90;;;;;;5010546;28;20030;-82
2022/08/31 03:05:21;;;;;;;4.68;3.55;;;20.60;99.90;;;;;;4995700;28;20027;-80
2022/08/31 03:07:48;;;;;;;3.88;3.42;;;20.60;99.90;;;;;;5011009;28;20061;-81
2022/08/31 03:10:15;;;;;;;6.00;3.63;;;20.60;99.90;;;;;;4994492;28;20030;-80
2022/08/31 03:12:41;;;;;;;4.85;3.53;;;20.60;99.90;;;;;;4995265;28;20114;-81
2022/08/31 03:15:09;;;;;;;6.47;4.22;;;20.60;99.90;;;;;;4994189;28;20053;-82
2022/08/31 03:17:35;;;;;;;4.95;3.70;;;20.60;99.90;;;;;;4994733;28;20037;-82
2022/08/31 03:20:04;;;;;;;6.68;4.00;;;20.60;99.90;;;;;;4993821;28;20034;-82
2022/08/31 03:22:31;;;;;;;6.03;3.63;;;20.60;99.90;;;;;;5010793;28;20027;-82
2022/08/31 03:24:56;;;;;;;6.45;4.47;;;20.60;99.90;;;;;;5010416;28;20054;-83
2022/08/31 03:27:23;;;;;;;8.10;3.78;;;20.50;99.90;;;;;;4995242;28;20372;-81
2022/08/31 03:29:49;;;;;;;6.28;3.88;;;20.50;99.90;;;;;;4995232;28;20038;-81
2022/08/31 03:32:15;;;;;;;4.63;3.58;;;20.50;99.90;;;;;;5009583;28;20042;-81
2022/08/31 03:34:41;;;;;;;7.20;4.03;;;20.50;99.90;;;;;;4993984;28;20033;-81
2022/08/31 03:37:06;;;;;;;5.78;4.20;;;20.50;99.90;;;;;;4994658;28;20379;-82
2022/08/31 03:39:32;;;;;;;5.18;3.92;;;20.50;99.90;;;;;;4994706;28;20096;-81
2022/08/31 03:41:57;;;;;;;7.03;3.75;;;20.50;99.90;;;;;;5009485;28;20491;-81
2022/08/31 03:44:23;;;;;;;5.72;4.43;;;20.50;99.90;;;;;;4994924;28;20031;-80
2022/08/31 03:46:50;;;;;;;5.95;4.32;;;20.50;99.90;;;;;;4994679;28;20081;-82
2022/08/31 03:49:19;;;;;;;6.25;4.10;;;20.50;99.90;;;;;;5009835;28;20031;-82
2022/08/31 03:51:44;;;;;;;5.63;3.85;;;20.40;99.90;;;;;;5010347;28;20026;-82
2022/08/31 03:54:10;;;;;;;5.47;4.07;;;20.40;99.90;;;;;;5009795;28;20418;-82
2022/08/31 03:56:37;;;;;;;5.47;3.80;;;20.50;99.90;;;;;;4993694;28;20053;-82
2022/08/31 03:59:03;;;;;;;6.72;3.97;;;20.40;99.90;;;;;;5010081;28;20129;-84
2022/08/31 04:01:29;;;;;;;5.90;3.90;;;20.50;99.90;;;;;;4994958;28;20057;-84
2022/08/31 04:03:54;;;;;;;5.90;4.30;;;20.50;99.90;;;;;;5010605;28;20030;-83
2022/08/31 04:06:23;;;;;;;7.15;4.38;;;20.40;99.90;;;;;;5009970;28;20468;-83
2022/08/31 04:08:48;;;;;;;6.82;4.90;;;20.40;99.90;;;;;;4994205;28;20062;-83
2022/08/31 04:11:17;;;;;;;7.82;4.90;;;20.40;99.90;;;;;;4994447;28;20088;-83
2022/08/31 04:13:43;;;;;;;7.78;5.25;;;20.50;99.90;;;;;;5010175;28;20058;-83
2022/08/31 04:16:11;;;;;;;7.82;4.60;;;20.50;99.90;;;;;;5009299;28;20054;-84
2022/08/31 04:18:42;;;;;;;7.70;4.95;;;20.50;99.90;;;;;;4994698;28;20039;-84
2022/08/31 04:21:14;;;;;;;7.75;4.53;;;20.50;99.90;;;;;;5009675;28;20033;-83
2022/08/31 04:23:40;;;;;;;7.32;4.68;;;20.50;99.90;;;;;;5010170;28;20046;-84
2022/08/31 04:26:14;;;;;;;6.97;4.28;;;20.50;99.90;;;;;;4994219;28;20022;-83
2022/08/31 04:28:39;;;;;;;8.88;4.35;;;20.50;99.90;;;;;;5010594;28;20030;-84
2022/08/31 04:31:08;;;;;;;8.88;4.13;;;20.50;99.90;;;;;;5009496;28;20033;-84
2022/08/31 04:33:38;;;;;;;9.10;4.47;;;20.50;99.90;;;;;;5010120;28;20031;-81
2022/08/31 04:36:09;;;;;;;5.88;4.35;;;20.50;99.90;;;;;;5009555;28;20034;-80
2022/08/31 04:38:35;;;;;;;5.97;4.30;;;20.50;99.90;;;;;;4994487;28;20066;-80
2022/08/31 04:41:08;;;;;;;7.78;4.15;;;20.40;99.90;;;;;;5008912;28;20034;-81
2022/08/31 04:43:35;;;;;;;5.80;3.88;;;20.40;99.90;;;;;;5009819;28;20119;-80
2022/08/31 04:46:02;;;;;;;6.38;3.97;;;20.40;99.90;;;;;;4992545;28;20041;-80
2022/08/31 04:48:28;;;;;;;5.72;4.03;;;20.40;99.90;;;;;;5009819;28;20132;-81
2022/08/31 04:51:05;;;;;;;6.15;3.78;;;20.40;99.90;;;;;;5009366;28;20451;-81
2022/08/31 04:53:31;;;;;;;5.03;4.00;;;20.50;99.90;;;;;;5009682;28;20030;-81
2022/08/31 04:55:57;;;;;;;5.53;4.20;;;20.50;99.90;;;;;;5008869;28;20491;-81
2022/08/31 04:58:23;;;;;;;7.70;3.83;;;20.50;99.90;;;;;;5009359;28;20031;-80
2022/08/31 05:00:51;;;;;;;7.57;4.07;;;20.50;99.90;;;;;;5009299;28;20031;-80
2022/08/31 05:03:18;;;;;;;7.47;4.15;;;20.50;99.90;;;;;;4993675;28;20023;-80
2022/08/31 05:05:45;;;;;;;6.25;4.50;;;20.50;99.90;;;;;;5008983;28;20026;-81
2022/08/31 05:08:11;;;;;;;6.22;3.97;;;20.40;99.90;;;;;;5009513;28;20027;-80
2022/08/31 05:10:40;;;;;;;5.57;4.30;;;20.40;99.90;;;;;;5012681;28;20074;-82
2022/08/31 05:13:05;;;;;;;8.70;4.25;;;20.40;99.90;;;;;;4996109;28;20030;-81
2022/08/31 05:15:32;;;;;;;9.95;4.70;;;20.30;99.90;;;;;;5012163;28;20055;-81
2022/08/31 05:17:57;;;;;;;7.85;4.80;;;20.40;99.90;;;;;;5012112;28;20030;-81
2022/08/31 05:20:23;;;;;;;6.55;4.55;;;20.40;99.90;;;;;;5012771;28;20483;-81
2022/08/31 05:22:49;;;;;;;6.30;4.15;;;20.40;99.90;;;;;;5012922;28;20026;-82
2022/08/31 05:25:15;;;;;;;9.57;4.78;;;20.40;99.90;;;;;;5012145;28;20651;-81
2022/08/31 05:27:41;;;;;;;5.88;4.20;;;20.40;99.90;;;;;;4997092;28;20105;-81
2022/08/31 05:30:07;;;;;;;4.95;4.30;;;20.40;99.90;;;;;;4996866;28;20030;-81
2022/08/31 05:32:33;;;;;;;7.40;4.25;;;20.30;99.90;;;;;;4996028;28;20026;-82
2022/08/31 05:34:59;;;;;;;8.00;4.18;;;20.30;99.90;;;;;;5011737;28;20475;-82
2022/08/31 05:37:25;;;;;;;6.72;4.90;;;20.30;99.90;;;;;;4997010;28;20079;-82
2022/08/31 05:39:50;;;;;;;8.43;4.45;;;20.30;99.90;;;;;;4996907;28;20057;-82
2022/08/31 05:42:18;;;;;;;5.93;4.22;;;20.30;99.90;;;;;;4996504;28;20464;-82
2022/08/31 05:44:44;;;;;;;7.82;4.32;;;20.30;99.90;;;;;;5012184;28;20026;-82
2022/08/31 05:47:10;;;;;;;6.82;4.55;;;20.30;99.90;;;;;;4996477;28;20037;-81
2022/08/31 05:49:42;;;;;;;5.70;4.28;;;20.30;99.90;;;;;;4996780;28;20026;-82
2022/08/31 05:52:08;;;;;;;5.78;4.43;;;20.40;99.90;;;;;;5011729;28;20031;-82
2022/08/31 05:54:34;;;;;;;9.52;4.80;;;20.30;99.90;;;;;;5011874;28;20072;-82
2022/08/31 05:57:00;;;;;;;7.50;4.85;;;20.20;99.90;;;;;;5011698;28;20058;-81
2022/08/31 05:59:26;;;;;;;6.95;4.68;;;20.20;99.90;;;;;;4996686;28;20117;-82
2022/08/31 06:01:51;;;;;;;6.88;4.97;;;20.30;99.90;;;;;;4995727;28;20113;-82
2022/08/31 06:04:17;;;;;;;7.05;4.97;;;20.30;99.90;;;;;;4996010;28;20089;-82
2022/08/31 06:06:43;;;;;;;9.13;4.43;;;20.30;99.90;;;;;;4996845;28;20054;-82
2022/08/31 06:09:10;;;;;;;6.82;4.20;;;20.30;99.90;;;;;;4996079;28;20105;-80
2022/08/31 06:11:37;;;;;;;6.65;4.85;;;20.30;99.90;;;;;;4996384;28;20034;-81
2022/08/31 06:14:04;;;;;;;6.78;4.70;;;20.20;99.90;;;;;;5011107;28;20058;-81
2022/08/31 06:16:31;;;;;;;7.03;4.90;;;20.20;99.90;;;;;;5011397;28;20058;-82
2022/08/31 06:18:57;;;;;;;6.55;4.88;;;20.30;99.90;;;;;;5011380;28;20129;-82
2022/08/31 06:21:26;;;;;;;11.10;5.50;;;20.20;99.90;;;;;;4995841;28;20451;-82
2022/08/31 06:23:56;;;;;;;8.73;5.45;;;20.20;99.90;;;;;;4996599;28;20022;-82
2022/08/31 06:26:23;;;;;;;6.15;4.70;;;20.30;99.90;;;;;;4994866;28;20030;-81
2022/08/31 06:28:51;;;;;;;8.45;4.55;;;20.30;99.90;;;;;;4995093;28;20034;-81
2022/08/31 06:31:28;;;;;;;9.57;5.05;;;20.40;99.90;;;;;;4994714;28;20030;-81
2022/08/31 06:33:55;;;;;;;8.27;5.15;;;20.40;99.90;;;;;;5011391;28;20084;-83
2022/08/31 06:36:23;;;;;;;8.27;5.00;;;20.40;99.90;;;;;;5010761;28;20117;-83
2022/08/31 06:38:50;;;;;;;8.40;5.03;;;20.50;99.90;;;;;;4995030;28;20038;-83
2022/08/31 06:41:22;;;;;;;13.65;4.97;;;20.50;99.90;;;;;;4995557;28;20050;-84
2022/08/31 06:43:48;;;;;;;8.85;4.75;;;20.50;99.90;;;;;;4995228;28;20053;-84
2022/08/31 06:46:16;;;;;;;8.93;5.45;;;20.60;99.90;;;;;;4994313;28;20423;-83
2022/08/31 06:48:42;;;;;;;9.90;5.55;;;20.50;99.90;;;;;;5011395;28;20030;-84
2022/08/31 06:51:10;;;;;;;8.32;5.30;;;20.50;99.90;;;;;;4995136;28;20034;-84
2022/08/31 06:53:39;;;;;;;6.50;4.85;;;20.60;99.90;;;;;;4995328;28;20563;-83
2022/08/31 06:56:07;;;;;;;9.50;5.20;;;20.60;99.90;;;;;;4994288;28;20026;-81
2022/08/31 06:58:33;;;;;;;9.02;4.82;;;20.60;99.90;;;;;;4995752;28;20495;-82
2022/08/31 07:01:08;;;;;;;6.82;4.90;;;20.70;99.90;;;;;;4995684;28;20034;-83
2022/08/31 07:03:39;;;;;;;10.27;5.55;;;20.70;99.90;;;;;;5011207;28;20034;-83
2022/08/31 07:06:11;;;;;;;12.00;5.47;;;20.80;99.90;;;;;;5010556;28;20169;-87
2022/08/31 07:08:38;;;;;;;9.30;5.25;;;20.80;99.90;;;;;;5010912;28;20042;-87
2022/08/31 07:11:14;;;;;;;9.13;4.70;;;20.90;99.90;;;;;;5010387;28;20026;-85
2022/08/31 07:13:40;;;;;;;7.13;4.80;;;20.80;99.90;;;;;;4994227;28;20472;-86
2022/08/31 07:16:08;;;;;;;6.72;4.68;;;20.80;99.90;;;;;;5009847;28;20046;-87
2022/08/31 07:18:34;;;;;;;8.38;4.80;;;20.90;99.90;;;;;;4994266;28;20035;-86
2022/08/31 07:21:15;;;;;;;9.25;5.88;;;20.90;99.90;;;;;;5010648;28;20489;-87
2022/08/31 07:23:42;;;;;;;9.50;5.28;;;20.70;99.90;;;;;;5011063;28;20061;-86
2022/08/31 07:26:10;;;;;;;9.32;5.60;;;20.70;99.90;;;;;;4994759;28;20454;-86
2022/08/31 07:28:37;;;;;;;7.03;5.10;;;20.80;99.90;;;;;;5010640;28;20030;-87
2022/08/31 07:31:04;;;;;;;9.43;5.40;;;20.80;99.90;;;;;;5010032;28;20538;-87
2022/08/31 07:33:37;;;;;;;7.20;5.00;;;20.90;99.90;;;;;;5010436;28;20521;-86
2022/08/31 07:36:14;;;;;;;9.88;4.80;;;20.90;99.90;;;;;;5010211;28;20026;-87
2022/08/31 07:44:12;;;;;;;7.15;5.28;;;21.10;99.90;;;;;;4994646;28;20038;-83
2022/08/31 07:46:37;;;;;;;9.32;5.75;;;21.10;99.90;;;;;;4994963;28;20042;-84
2022/08/31 07:49:12;;;;;;;8.18;5.22;;;21.10;99.90;;;;;;4994911;28;20037;-81
2022/08/31 07:51:42;;;;;;;9.05;4.93;;;21.10;99.90;;;;;;4994627;28;20109;-80
2022/08/31 07:54:09;;;;;;;9.32;5.32;;;21.10;99.90;;;;;;4994233;28;20033;-82
2022/08/31 07:56:37;;;;;;;8.43;5.28;;;21.10;99.90;;;;;;4994529;28;20117;-83
2022/08/31 07:59:06;;;;;;;8.88;4.65;;;21.10;99.90;;;;;;4993664;28;20041;-83
2022/08/31 08:01:33;;;;;;;7.15;4.78;;;21.10;99.90;;;;;;4994659;28;20531;-83
2022/08/31 08:04:00;;;;;;;8.93;5.40;;;21.20;99.90;;;;;;4994855;28;20027;-83
2022/08/31 08:06:27;;;;;;;8.07;5.03;;;21.20;99.90;;;;;;5009591;28;20385;-83
2022/08/31 08:08:54;;;;;;;8.05;4.78;;;21.20;99.90;;;;;;5009629;28;20084;-83
2022/08/31 08:11:20;;;;;;;7.38;5.18;;;21.30;99.90;;;;;;4993966;28;20022;-82
2022/08/31 08:13:47;;;;;;;6.65;5.00;;;21.40;99.90;;;;;;4994486;28;20026;-83
2022/08/31 08:16:14;;;;;;;6.70;4.65;;;21.40;99.90;;;;;;4993944;28;20054;-83
2022/08/31 08:18:40;;;;;;;6.95;4.53;;;21.50;99.90;;;;;;4993399;28;20076;-83
2022/08/31 08:21:06;;;;;;;8.57;4.85;;;21.50;99.90;;;;;;5009861;28;20030;-83
2022/08/31 08:23:32;;;;;;;7.78;4.60;;;21.60;99.90;;;;;;4994246;28;20515;-83
2022/08/31 08:26:00;;;;;;;8.70;4.70;;;21.60;99.90;;;;;;4994378;28;20054;-83
2022/08/31 08:28:29;;;;;;;7.30;4.40;;;21.70;99.90;;;;;;5009228;28;20030;-83
2022/08/31 08:30:59;;;;;;;6.80;4.20;;;21.70;99.90;;;;;;5009764;28;20054;-82
2022/08/31 08:33:27;;;;;;;5.85;4.07;;;21.80;99.90;;;;;;5009174;28;20027;-81
2022/08/31 08:35:57;;;;;;;8.40;4.30;;;21.80;99.90;;;;;;4994487;28;20027;-82
2022/08/31 08:38:29;;;;;;;6.83;4.37;;;21.80;99.90;;;;;;4993639;28;20030;-82
2022/08/31 08:40:57;;;;;;;6.55;4.25;;;21.90;99.90;;;;;;5009408;28;20057;-82
2022/08/31 08:43:31;;;;;;;5.13;4.10;;;22.00;99.90;;;;;;5010163;28;20395;-82
2022/08/31 08:45:57;;;;;;;5.68;4.20;;;22.00;99.90;;;;;;5013325;28;20463;-82
2022/08/31 08:48:26;;;;;;;5.70;3.95;;;21.90;99.90;;;;;;5012735;28;20038;-82
2022/08/31 08:50:52;;;;;;;6.40;3.80;;;21.90;99.90;;;;;;4998115;28;20109;-83
2022/08/31 08:53:22;;;;;;;6.88;4.28;;;21.80;99.90;;;;;;5013170;28;20061;-83
2022/08/31 08:55:48;;;;;;;6.97;3.72;;;21.80;99.90;;;;;;5013360;28;20102;-83
2022/08/31 08:58:18;;;;;;;6.30;3.60;;;21.80;99.90;;;;;;5012590;28;20029;-82
2022/08/31 09:00:51;;;;;;;6.53;3.75;;;21.70;99.90;;;;;;5015953;28;20033;-82
2022/08/31 09:03:21;;;;;;;6.43;3.83;;;21.70;99.90;;;;;;5017135;28;20025;-83
2022/08/31 09:05:49;;;;;;;6.53;3.67;;;21.80;99.90;;;;;;5016230;28;20107;-86
2022/08/31 09:08:53;;;;;;;6.60;4.00;;;21.70;99.90;;;;;;5015554;28;20026;-83
2022/08/31 09:11:34;;;;;;;8.68;4.03;;;21.70;99.90;;;;;;5016193;28;20049;-83
2022/08/31 09:14:06;;;;;;;8.32;4.15;;;21.80;99.90;;;;;;5015685;28;20022;-84
2022/08/31 09:17:15;;;;;;;7.05;4.28;;;21.80;99.90;;;;;;5016488;28;20391;-84
2022/08/31 09:20:02;;;;;;;6.75;4.25;;;21.90;99.90;;;;;;4956539;28;20101;-85
2022/08/31 09:22:32;;;;;;;6.82;4.13;;;21.80;99.90;;;;;;5011840;28;20058;-83
2022/08/31 09:24:58;;;;;;;8.15;3.95;;;21.70;99.90;;;;;;5017556;28;20029;-81
2022/08/31 09:27:46;;;;;;;4.97;3.53;;;21.60;99.90;;;;;;5015278;28;20029;-81
2022/08/31 09:30:31;;;;;;;8.23;3.55;;;21.50;99.90;;;;;;5015214;28;20118;-80
2022/08/31 09:32:57;;;;;;;6.35;3.92;;;21.40;99.90;;;;;;4996394;28;20399;-83
2022/08/31 09:35:39;;;;;;;4.95;3.70;;;21.20;99.90;;;;;;4995882;28;20109;-84
2022/08/31 09:38:10;;;;;;;4.70;3.88;;;21.00;99.90;;;;;;4996406;28;20502;-82
2022/08/31 09:40:47;;;;;;;7.15;3.50;;;20.90;99.90;;;;;;4995946;28;20038;-82
2022/08/31 09:43:21;;;;;;;5.32;3.50;;;20.80;99.90;;;;;;4995855;28;20041;-80
2022/08/31 09:46:10;;;;;;;7.53;4.00;;;20.70;99.90;;;;;;4996428;28;20062;-86
2022/08/31 09:48:55;;;;;;;7.75;3.95;;;20.60;99.90;;;;;;4997952;28;20038;-89
2022/08/31 09:51:23;;;;;;;5.22;3.60;;;20.50;99.90;;;;;;5012410;28;20102;-90
2022/08/31 09:56:53;;;;;;;5.50;3.83;;;20.60;99.90;;;;;;5005660;28;20164;-87
2022/08/31 09:59:42;;;;;;;5.50;3.53;;;20.50;99.90;;;;;;5003911;28;20038;-82
2022/08/31 10:02:27;;;;;;;5.53;3.53;;;20.50;99.90;;;;;;5002206;28;20481;-84
2022/08/31 10:04:55;;;;;;;8.48;3.90;;;20.50;99.90;;;;;;5014955;28;20037;-83
2022/08/31 10:07:24;;;;;;;8.02;4.20;;;20.50;99.90;;;;;;5006543;28;20120;-86
2022/08/31 10:09:57;;;;;;;6.75;4.15;;;20.50;99.90;;;;;;5008911;28;20113;-84
2022/08/31 10:12:35;;;;;;;6.68;4.32;;;20.50;99.90;;;;;;5013854;28;20025;-84
2022/08/31 10:15:14;;;;;;;8.73;4.22;;;20.50;99.90;;;;;;5000393;28;20050;-85
2022/08/31 10:17:53;;;;;;;7.38;4.38;;;20.50;99.90;;;;;;5011940;28;20058;-83
2022/08/31 10:20:30;;;;;;;7.25;4.40;;;20.50;99.90;;;;;;5014158;28;20108;-84
2022/08/31 10:23:17;;;;;;;6.88;4.57;;;20.50;99.90;;;;;;5002832;28;20031;-84
2022/08/31 10:25:53;;;;;;;7.57;3.90;;;20.60;99.90;;;;;;5011270;28;20030;-82
2022/08/31 10:28:35;;;;;;;10.05;4.68;;;20.60;99.90;;;;;;4995610;28;20519;-83
2022/08/31 10:31:25;;;;;;;7.05;4.50;;;20.60;99.90;;;;;;4994289;28;20023;-78
2022/08/31 10:36:53;;;;;;;9.18;4.40;;;20.60;99.90;;;;;;5009835;28;20555;-82
2022/08/31 10:39:24;;;;;;;7.47;4.55;;;20.70;99.90;;;;;;5013459;28;20037;-82
2022/08/31 10:41:51;;;;;;;8.10;4.80;;;20.70;99.90;;;;;;5010976;28;20030;-84
2022/08/31 10:44:25;;;;;;;7.93;4.82;;;20.70;99.90;;;;;;5010715;28;20030;-84
2022/08/31 10:46:53;;;;;;;6.10;4.93;;;20.80;99.90;;;;;;5010386;28;20034;-84
2022/08/31 10:49:20;;;;;;;7.45;4.40;;;20.90;99.90;;;;;;5010578;28;20030;-85
2022/08/31 10:51:58;;;;;;;8.90;4.50;;;21.00;99.90;;;;;;5012031;28;20163;-81
2022/08/31 10:54:49;;;;;;;6.47;4.43;;;21.00;99.90;;;;;;5013365;28;20037;-81
2022/08/31 10:57:55;;;;;;;5.27;3.97;;;21.00;99.90;;;;;;5013364;28;20467;-83
2022/08/31 11:00:41;;;;;;;8.57;4.70;;;21.00;99.90;;;;;;5002627;28;20122;-85
2022/08/31 11:03:26;;;;;;;7.97;5.05;;;21.10;99.90;;;;;;5013569;28;20125;-85
2022/08/31 11:05:59;;;;;;;7.95;4.47;;;21.20;99.90;;;;;;5012906;28;20479;-87
2022/08/31 11:08:48;;;;;;;8.20;4.65;;;21.30;99.90;;;;;;5004311;28;20167;-85
2022/08/31 11:11:28;;;;;;;8.85;4.72;;;21.40;99.90;;;;;;4982312;28;20030;-89
2022/08/31 11:14:18;;;;;;;6.93;4.45;;;21.50;99.90;;;;;;5001739;28;20030;-94
2022/08/31 11:16:54;;;;;;;7.65;4.82;;;21.50;99.90;;;;;;5011973;28;20053;-91
2022/08/31 11:19:38;;;;;;;6.72;4.70;;;21.60;99.90;;;;;;5010905;28;20109;-87
2022/08/31 11:22:19;;;;;;;7.18;5.10;;;21.60;99.90;;;;;;5013540;28;20129;-88
2022/08/31 11:24:57;;;;;;;7.80;5.25;;;21.60;99.90;;;;;;5012440;28;20029;-91
2022/08/31 11:27:32;;;;;;;9.32;5.05;;;21.70;99.90;;;;;;5000857;28;20042;-89
2022/08/31 11:30:22;;;;;;;8.27;4.97;;;21.60;99.90;;;;;;5011129;28;20226;-89
2022/08/31 11:33:04;;;;;;;8.45;5.15;;;21.40;99.90;;;;;;5014336;28;20059;-81
2022/08/31 11:35:48;;;;;;;7.28;5.13;;;21.40;99.90;;;;;;5012834;28;20030;-86
2022/08/31 11:38:56;;;;;;;9.02;5.35;;;21.30;99.90;;;;;;5011221;28;20030;-88
2022/08/31 11:41:38;;;;;;;7.97;4.43;;;21.20;99.90;;;;;;5010382;28;20030;-90
2022/08/31 11:44:09;;;;;;;7.68;4.63;;;21.10;99.90;;;;;;5010061;28;20037;-86
2022/08/31 11:46:41;;;;;;;6.07;4.55;;;21.10;99.90;;;;;;5012810;28;20061;-86
2022/08/31 11:49:09;;;;;;;7.32;4.40;;;21.10;99.90;;;;;;5012211;28;20033;-80
2022/08/31 11:51:41;;;;;;;9.20;5.50;;;21.20;99.90;;;;;;4998332;28;20034;-87
2022/08/31 11:54:25;;;;;;;6.70;4.80;;;21.20;99.90;;;;;;5000346;28;20026;-87
2022/08/31 11:56:53;;;;;;;8.65;5.28;;;21.10;99.90;;;;;;5000487;28;20083;-88
2022/08/31 11:59:32;;;;;;;8.15;5.22;;;21.10;99.90;;;;;;5008844;28;20041;-85
2022/08/31 12:02:18;;;;;;;9.77;4.82;;;21.10;99.90;;;;;;4998715;28;20038;-88
2022/08/31 12:04:47;;;;;;;10.13;4.97;;;21.20;99.90;;;;;;5013310;28;20036;-88
2022/08/31 12:07:23;;;;;;;12.98;5.40;;;21.20;99.90;;;;;;5014281;28;20231;-82
2022/08/31 12:10:09;;;;;;;8.30;5.07;;;21.20;99.90;;;;;;5013325;28;20474;-79
2022/08/31 12:12:50;;;;;;;13.00;5.10;;;21.20;99.90;;;;;;5005687;28;20460;-80
2022/08/31 12:15:38;;;;;;;9.05;5.03;;;21.30;99.90;;;;;;5013001;28;20076;-86
2022/08/31 12:18:29;;;;;;;9.15;5.18;;;21.30;99.90;;;;;;5016450;28;20044;-83
2022/08/31 12:24:26;;;;;;;10.02;5.50;;;21.30;99.90;;;;;;5005759;28;20561;-84
2022/08/31 12:26:52;;;;;;;;;;;21.40;99.90;;;;;;4998452;28;20048;-83
2022/08/31 12:29:24;;;;;;;7.53;5.07;;;21.40;99.90;;;;;;5012772;28;20358;-79
2022/08/31 12:32:15;;;;;;;10.07;5.70;;;21.40;99.90;;;;;;5000801;28;20451;-79
2022/08/31 12:35:02;;;;;;;7.55;4.93;;;21.50;99.90;;;;;;5016963;28;20026;-81
2022/08/31 12:37:33;;;;;;;7.97;5.47;;;21.40;99.90;;;;;;5000713;28;20022;-88
2022/08/31 12:40:14;;;;;;;7.10;5.22;;;21.40;99.90;;;;;;5011033;28;20064;-81
2022/08/31 12:42:57;;;;;;;7.55;5.15;;;21.40;99.90;;;;;;5003522;28;20038;-81
2022/08/31 12:45:56;;;;;;;6.65;4.75;;;21.50;99.90;;;;;;5013442;28;20034;-81
2022/08/31 12:48:37;;;;;;;6.32;4.45;;;21.60;99.90;;;;;;5012128;28;20036;-82
2022/08/31 12:51:27;;;;;;;6.65;4.15;;;21.60;99.90;;;;;;5002208;28;20022;-83
2022/08/31 12:54:19;;;;;;;6.22;4.80;;;21.60;99.90;;;;;;5000751;28;20109;-82
2022/08/31 12:57:15;;;;;;;5.57;4.50;;;21.60;99.90;;;;;;5007295;28;20026;-87
2022/08/31 13:00:09;;;;;;;6.47;4.60;;;21.60;99.90;;;;;;4998550;28;20190;-84
2022/08/31 13:02:42;;;;;;;6.38;4.40;;;21.60;99.90;;;;;;4996970;28;20042;-87
2022/08/31 13:05:23;;;;;;;7.63;4.80;;;21.50;99.90;;;;;;5010774;28;20034;-83
2022/08/31 13:07:50;;;;;;;6.97;4.83;;;21.50;99.90;;;;;;5004795;28;20026;-85
2022/08/31 13:10:29;;;;;;;7.63;4.63;;;21.50;99.90;;;;;;5013879;28;20262;-92
2022/08/31 13:13:01;;;;;;;9.07;5.50;;;21.50;99.90;;;;;;5013044;28;20025;-84
2022/08/31 13:15:40;;;;;;;8.27;4.88;;;21.50;99.90;;;;;;4999554;28;20058;-89
2022/08/31 13:18:13;;;;;;;5.70;4.72;;;21.60;99.90;;;;;;5015619;28;20026;-85
2022/08/31 13:20:42;;;;;;;9.07;5.25;;;21.70;99.90;;;;;;5013177;28;20120;-93
2022/08/31 13:23:12;;;;;;;5.68;4.40;;;21.80;99.90;;;;;;5012580;28;20061;-80
2022/08/31 13:25:38;;;;;;;9.70;5.38;;;22.00;99.90;;;;;;5010750;28;20045;-83